sensor_id;sensor_type;location;lat;lon;timestamp;temperature;humidity
18268;DHT22;9260;49.998;19.880;2023-03-23T00:06:15;4.30;99.90
18268;DHT22;9260;49.998;19.880;2023-03-23T00:16:19;4.00;99.90
18268;DHT22;9260;49.998;19.880;2023-03-23T00:26:34;3.90;99.90
18268;DHT22;9260;49.998;19.880;2023-03-23T00:36:37;3.90;99.90
18268;DHT22;9260;49.998;19.880;2023-03-23T00:46:49;3.70;99.90
18268;DHT22;9260;49.998;19.880;2023-03-23T00:56:52;3.60;99.90
18268;DHT22;9260;49.998;19.880;2023-03-23T01:06:57;3.60;99.90
18268;DHT22;9260;49.998;19.880;2023-03-23T01:17:01;3.50;99.90
18268;DHT22;9260;49.998;19.880;2023-03-23T01:27:05;3.20;99.90
18268;DHT22;9260;49.998;19.880;2023-03-23T01:37:08;3.10;99.90
18268;DHT22;9260;49.998;19.880;2023-03-23T01:47:13;3.10;99.90
18268;DHT22;9260;49.998;19.880;2023-03-23T01:57:19;3.10;99.90
18268;DHT22;9260;49.998;19.880;2023-03-23T02:07:26;3.00;99.90
18268;DHT22;9260;49.998;19.880;2023-03-23T02:17:38;3.00;99.90
18268;DHT22;9260;49.998;19.880;2023-03-23T02:38:28;3.40;99.90
18268;DHT22;9260;49.998;19.880;2023-03-23T02:48:36;3.40;99.90
18268;DHT22;9260;49.998;19.880;2023-03-23T02:58:42;3.40;99.90
18268;DHT22;9260;49.998;19.880;2023-03-23T03:08:49;3.60;99.90
18268;DHT22;9260;49.998;19.880;2023-03-23T03:19:00;3.90;99.90
18268;DHT22;9260;49.998;19.880;2023-03-23T03:29:05;4.20;99.90
18268;DHT22;9260;49.998;19.880;2023-03-23T03:39:18;4.20;99.90
18268;DHT22;9260;49.998;19.880;2023-03-23T03:49:21;4.20;99.90
18268;DHT22;9260;49.998;19.880;2023-03-23T03:59:26;4.30;99.90
18268;DHT22;9260;49.998;19.880;2023-03-23T04:09:50;4.10;99.90
18268;DHT22;9260;49.998;19.880;2023-03-23T04:19:57;3.90;99.90
18268;DHT22;9260;49.998;19.880;2023-03-23T04:30:04;3.90;99.90
18268;DHT22;9260;49.998;19.880;2023-03-23T04:40:15;3.80;99.90
18268;DHT22;9260;49.998;19.880;2023-03-23T04:50:33;3.90;99.90
18268;DHT22;9260;49.998;19.880;2023-03-23T05:00:47;4.00;99.90
18268;DHT22;9260;49.998;19.880;2023-03-23T05:10:54;4.10;99.90
18268;DHT22;9260;49.998;19.880;2023-03-23T05:21:02;4.30;99.90
18268;DHT22;9260;49.998;19.880;2023-03-23T05:31:11;4.60;99.90
18268;DHT22;9260;49.998;19.880;2023-03-23T05:41:15;5.00;99.90
18268;DHT22;9260;49.998;19.880;2023-03-23T05:51:18;5.40;99.90
18268;DHT22;9260;49.998;19.880;2023-03-23T06:01:24;6.30;99.90
18268;DHT22;9260;49.998;19.880;2023-03-23T06:11:27;7.40;99.90
18268;DHT22;9260;49.998;19.880;2023-03-23T06:21:50;8.40;99.90
18268;DHT22;9260;49.998;19.880;2023-03-23T06:32:01;9.70;99.90
18268;DHT22;9260;49.998;19.880;2023-03-23T06:42:09;12.20;99.90
18268;DHT22;9260;49.998;19.880;2023-03-23T06:52:18;13.60;99.90
18268;DHT22;9260;49.998;19.880;2023-03-23T07:02:22;17.40;99.90
18268;DHT22;9260;49.998;19.880;2023-03-23T07:12:27;18.80;99.90
18268;DHT22;9260;49.998;19.880;2023-03-23T07:22:33;19.40;99.90
18268;DHT22;9260;49.998;19.880;2023-03-23T07:32:50;19.60;99.90
18268;DHT22;9260;49.998;19.880;2023-03-23T07:42:57;20.50;99.90
18268;DHT22;9260;49.998;19.880;2023-03-23T07:53:19;19.10;99.90
18268;DHT22;9260;49.998;19.880;2023-03-23T08:03:33;18.70;99.90
18268;DHT22;9260;49.998;19.880;2023-03-23T08:14:02;19.00;99.90
18268;DHT22;9260;49.998;19.880;2023-03-23T08:24:06;18.90;99.90
18268;DHT22;9260;49.998;19.880;2023-03-23T08:34:27;17.50;99.90
18268;DHT22;9260;49.998;19.880;2023-03-23T08:45:04;16.80;99.90
18268;DHT22;9260;49.998;19.880;2023-03-23T08:55:34;16.80;99.90
18268;DHT22;9260;49.998;19.880;2023-03-23T09:06:05;17.40;99.90
18268;DHT22;9260;49.998;19.880;2023-03-23T09:16:18;18.20;99.90
18268;DHT22;9260;49.998;19.880;2023-03-23T09:26:22;19.00;99.90
18268;DHT22;9260;49.998;19.880;2023-03-23T09:36:27;19.60;99.90
18268;DHT22;9260;49.998;19.880;2023-03-23T09:46:46;19.30;99.90
18268;DHT22;9260;49.998;19.880;2023-03-23T09:56:54;19.60;99.90
18268;DHT22;9260;49.998;19.880;2023-03-23T10:06:59;22.10;99.90
18268;DHT22;9260;49.998;19.880;2023-03-23T10:17:14;29.90;99.90
18268;DHT22;9260;49.998;19.880;2023-03-23T10:27:25;31.50;99.90
18268;DHT22;9260;49.998;19.880;2023-03-23T10:37:34;38.30;99.90
18268;DHT22;9260;49.998;19.880;2023-03-23T10:47:44;42.40;99.90
18268;DHT22;9260;49.998;19.880;2023-03-23T10:58:02;42.80;99.90
18268;DHT22;9260;49.998;19.880;2023-03-23T11:08:14;36.30;99.90
18268;DHT22;9260;49.998;19.880;2023-03-23T11:18:20;42.40;99.90
18268;DHT22;9260;49.998;19.880;2023-03-23T11:28:31;43.60;99.90
18268;DHT22;9260;49.998;19.880;2023-03-23T11:38:35;42.40;99.90
18268;DHT22;9260;49.998;19.880;2023-03-23T11:48:43;43.90;99.90
18268;DHT22;9260;49.998;19.880;2023-03-23T11:58:48;42.70;99.90
18268;DHT22;9260;49.998;19.880;2023-03-23T12:09:02;32.50;99.90
18268;DHT22;9260;49.998;19.880;2023-03-23T12:19:23;26.40;1.00
18268;DHT22;9260;49.998;19.880;2023-03-23T12:29:56;23.50;1.00
18268;DHT22;9260;49.998;19.880;2023-03-23T12:40:44;21.90;1.00
18268;DHT22;9260;49.998;19.880;2023-03-23T12:51:10;20.60;1.00
18268;DHT22;9260;49.998;19.880;2023-03-23T13:01:27;19.90;1.00
18268;DHT22;9260;49.998;19.880;2023-03-23T13:11:34;19.80;1.00
18268;DHT22;9260;49.998;19.880;2023-03-23T13:21:42;19.70;1.00
18268;DHT22;9260;49.998;19.880;2023-03-23T13:31:47;18.70;1.00
18268;DHT22;9260;49.998;19.880;2023-03-23T13:42:00;17.90;1.00
18268;DHT22;9260;49.998;19.880;2023-03-23T13:52:17;17.80;1.00
18268;DHT22;9260;49.998;19.880;2023-03-23T14:02:34;17.60;1.00
18268;DHT22;9260;49.998;19.880;2023-03-23T14:12:45;17.60;1.00
18268;DHT22;9260;49.998;19.880;2023-03-23T14:22:53;17.60;1.00
18268;DHT22;9260;49.998;19.880;2023-03-23T14:33:05;17.40;1.00
18268;DHT22;9260;49.998;19.880;2023-03-23T14:43:10;17.60;1.00
18268;DHT22;9260;49.998;19.880;2023-03-23T14:53:21;17.70;1.00
18268;DHT22;9260;49.998;19.880;2023-03-23T15:03:25;17.60;1.00
18268;DHT22;9260;49.998;19.880;2023-03-23T15:13:30;17.40;1.00
18268;DHT22;9260;49.998;19.880;2023-03-23T15:23:33;17.40;1.00
18268;DHT22;9260;49.998;19.880;2023-03-23T15:33:38;17.00;1.00
18268;DHT22;9260;49.998;19.880;2023-03-23T15:43:50;16.70;1.00
18268;DHT22;9260;49.998;19.880;2023-03-23T15:53:55;16.60;1.00
18268;DHT22;9260;49.998;19.880;2023-03-23T16:04:00;16.40;1.00
18268;DHT22;9260;49.998;19.880;2023-03-23T16:14:13;16.30;1.00
18268;DHT22;9260;49.998;19.880;2023-03-23T16:24:17;16.00;1.00
18268;DHT22;9260;49.998;19.880;2023-03-23T16:34:22;15.80;1.00
18268;DHT22;9260;49.998;19.880;2023-03-23T16:44:26;15.60;1.00
18268;DHT22;9260;49.998;19.880;2023-03-23T16:54:31;15.40;1.00
18268;DHT22;9260;49.998;19.880;2023-03-23T17:04:35;15.10;1.00
18268;DHT22;9260;49.998;19.880;2023-03-23T17:14:40;14.80;1.00
18268;DHT22;9260;49.998;19.880;2023-03-23T17:24:45;14.20;1.00
18268;DHT22;9260;49.998;19.880;2023-03-23T17:34:51;13.80;1.00
18268;DHT22;9260;49.998;19.880;2023-03-23T17:44:55;13.50;1.00
18268;DHT22;9260;49.998;19.880;2023-03-23T17:55:00;13.40;1.00
18268;DHT22;9260;49.998;19.880;2023-03-23T18:05:05;13.30;1.00
18268;DHT22;9260;49.998;19.880;2023-03-23T18:15:14;13.10;1.00
18268;DHT22;9260;49.998;19.880;2023-03-23T18:25:17;13.00;1.00
18268;DHT22;9260;49.998;19.880;2023-03-23T18:35:23;12.90;1.00
18268;DHT22;9260;49.998;19.880;2023-03-23T18:45:27;12.40;1.00
18268;DHT22;9260;49.998;19.880;2023-03-23T18:55:32;11.90;1.00
18268;DHT22;9260;49.998;19.880;2023-03-23T19:05:38;11.90;1.00
18268;DHT22;9260;49.998;19.880;2023-03-23T19:15:45;12.20;1.00
18268;DHT22;9260;49.998;19.880;2023-03-23T19:25:49;12.40;1.00
18268;DHT22;9260;49.998;19.880;2023-03-23T19:35:56;12.40;1.00
18268;DHT22;9260;49.998;19.880;2023-03-23T19:46:12;12.40;1.00
18268;DHT22;9260;49.998;19.880;2023-03-23T19:56:19;12.50;1.00
18268;DHT22;9260;49.998;19.880;2023-03-23T20:06:23;12.30;1.00
18268;DHT22;9260;49.998;19.880;2023-03-23T20:16:31;12.10;1.00
18268;DHT22;9260;49.998;19.880;2023-03-23T20:26:37;11.90;1.00
18268;DHT22;9260;49.998;19.880;2023-03-23T20:36:45;11.70;1.00
18268;DHT22;9260;49.998;19.880;2023-03-23T20:46:51;11.90;1.00
18268;DHT22;9260;49.998;19.880;2023-03-23T20:56:57;12.20;1.00
18268;DHT22;9260;49.998;19.880;2023-03-23T21:07:01;12.40;1.00
18268;DHT22;9260;49.998;19.880;2023-03-23T21:17:06;12.60;1.00
18268;DHT22;9260;49.998;19.880;2023-03-23T21:27:11;12.80;1.00
18268;DHT22;9260;49.998;19.880;2023-03-23T21:37:16;12.90;1.00
18268;DHT22;9260;49.998;19.880;2023-03-23T21:47:20;12.90;1.00
18268;DHT22;9260;49.998;19.880;2023-03-23T21:57:25;12.70;1.00
18268;DHT22;9260;49.998;19.880;2023-03-23T22:07:29;12.30;1.00
18268;DHT22;9260;49.998;19.880;2023-03-23T22:17:36;12.00;1.00
18268;DHT22;9260;49.998;19.880;2023-03-23T22:27:40;11.90;1.00
18268;DHT22;9260;49.998;19.880;2023-03-23T22:37:45;12.10;1.00
18268;DHT22;9260;49.998;19.880;2023-03-23T22:47:48;12.20;1.00
18268;DHT22;9260;49.998;19.880;2023-03-23T22:57:54;12.40;1.00
18268;DHT22;9260;49.998;19.880;2023-03-23T23:07:57;12.40;1.00
18268;DHT22;9260;49.998;19.880;2023-03-23T23:18:03;12.40;1.00
18268;DHT22;9260;49.998;19.880;2023-03-23T23:28:07;12.30;1.00
18268;DHT22;9260;49.998;19.880;2023-03-23T23:38:13;12.20;1.00
18268;DHT22;9260;49.998;19.880;2023-03-23T23:48:17;12.10;1.00
18268;DHT22;9260;49.998;19.880;2023-03-23T23:58:23;12.00;1.00
